Derby Airfield


Codes: EGBD/
Name: Derby Airfield
City: Derby
Country: United Kingdom
Elevation: 175 ft.
Website:
Wikipedia:

Photos at Derby Airfield


   Photos courtesy of SpottingLog. You can add your own sightings and photos by signing up for a free trial today.



No photos found.

Weather at Derby Airfield


Time (UTC)DescriptionTempratureWindCloud coverageVisibilityPressureHumidity
17-Jun-2024 06:00Few Clouds11°C7 mph, SW20%10000m1006hPa85%
17-Jun-2024 09:00Scattered Clouds13°C9 mph, W29%10000m1008hPa82%
17-Jun-2024 12:00Light Rain14°C7 mph, W74%10000m1010hPa82%
17-Jun-2024 15:00Light Rain17°C9 mph, NW89%10000m1010hPa71%
17-Jun-2024 18:00Light Rain16°C9 mph, NW62%10000m1012hPa79%
17-Jun-2024 21:00Clear Sky11°C7 mph, NW3%10000m1014hPa92%
18-Jun-2024 00:00Clear Sky9°C7 mph, W10%10000m1015hPa95%
18-Jun-2024 03:00Scattered Clouds8°C7 mph, W33%10000m1015hPa97%
18-Jun-2024 06:00Broken Clouds11°C9 mph, NW59%10000m1016hPa91%
18-Jun-2024 09:00Broken Clouds15°C7 mph, NW55%10000m1016hPa78%
18-Jun-2024 12:00Light Rain16°C7 mph, N79%10000m1017hPa78%
18-Jun-2024 15:00Light Rain17°C9 mph, NE83%10000m1017hPa75%
18-Jun-2024 18:00Light Rain15°C9 mph, NE86%10000m1018hPa87%
18-Jun-2024 21:00Light Rain11°C7 mph, NE24%10000m1020hPa95%
19-Jun-2024 00:00Scattered Clouds9°C4 mph, NE31%10000m1021hPa96%
19-Jun-2024 03:00Overcast Clouds8°C4 mph, NE89%10000m1022hPa96%
19-Jun-2024 06:00Overcast Clouds10°C0 mph, E92%10000m1022hPa93%
19-Jun-2024 09:00Overcast Clouds15°C4 mph, NW92%10000m1023hPa80%
19-Jun-2024 12:00Overcast Clouds17°C7 mph, NW96%10000m1023hPa74%
19-Jun-2024 15:00Overcast Clouds17°C7 mph, NW100%10000m1022hPa72%
19-Jun-2024 18:00Overcast Clouds17°C4 mph, NW96%10000m1022hPa74%
19-Jun-2024 21:00Overcast Clouds12°C4 mph, NW85%10000m1023hPa81%
20-Jun-2024 00:00Broken Clouds10°C2 mph, W69%10000m1023hPa75%
20-Jun-2024 03:00Broken Clouds9°C4 mph, NW56%10000m1021hPa75%
20-Jun-2024 06:00Broken Clouds12°C2 mph, W76%10000m1021hPa75%
20-Jun-2024 09:00Broken Clouds17°C2 mph, SE57%10000m1020hPa68%
20-Jun-2024 12:00Broken Clouds20°C4 mph, SE75%10000m1019hPa65%
20-Jun-2024 15:00Broken Clouds20°C4 mph, SE80%10000m1016hPa62%
20-Jun-2024 18:00Overcast Clouds18°C7 mph, SE90%10000m1015hPa79%
20-Jun-2024 21:00Overcast Clouds14°C4 mph, SE99%10000m1015hPa89%
21-Jun-2024 00:00Broken Clouds12°C2 mph, E82%10000m1014hPa91%
21-Jun-2024 03:00Overcast Clouds12°C0 mph, SW100%10000m1013hPa92%
21-Jun-2024 06:00Overcast Clouds13°C2 mph, W100%10000m1012hPa87%
21-Jun-2024 09:00Overcast Clouds17°C4 mph, SE100%10000m1011hPa75%
21-Jun-2024 12:00Overcast Clouds19°C4 mph, SW100%10000m1010hPa68%
21-Jun-2024 15:00Light Rain20°C4 mph, SW100%5048m1009hPa69%
21-Jun-2024 18:00Moderate Rain19°C7 mph, SW100%4708m1009hPa83%
21-Jun-2024 21:00Light Rain15°C7 mph, W96%10000m1009hPa91%
22-Jun-2024 00:00Broken Clouds13°C4 mph, W58%10000m1009hPa94%
22-Jun-2024 03:00Overcast Clouds12°C7 mph, W90%10000m1010hPa94%